createdAt,value
2022-12-04T00:00:41.554Z,37.17
2022-12-04T00:05:43.232Z,34.85
2022-12-04T00:10:44.954Z,32.88
2022-12-04T00:15:46.618Z,35.07
2022-12-04T00:20:48.875Z,36.22
2022-12-04T00:25:50.590Z,34.53
2022-12-04T00:30:52.277Z,33.75
2022-12-04T00:36:01.813Z,35.90
2022-12-04T00:41:04.412Z,36.47
2022-12-04T00:46:06.625Z,35.83
2022-12-04T00:51:14.317Z,38.20
2022-12-04T00:56:20.950Z,35.80
2022-12-04T01:01:24.425Z,34.65
2022-12-04T01:06:32.500Z,35.92
2022-12-04T01:11:34.578Z,37.97
2022-12-04T01:16:38.857Z,36.90
2022-12-04T01:21:40.934Z,38.10
2022-12-04T01:26:42.620Z,37.53
2022-12-04T01:31:44.440Z,37.15
2022-12-04T01:36:46.405Z,37.70
2022-12-04T01:41:48.145Z,37.65
2022-12-04T01:47:00.516Z,38.58
2022-12-04T01:52:11.706Z,36.60
2022-12-04T01:57:17.752Z,38.20
2022-12-04T02:02:24.527Z,38.40
2022-12-04T02:07:26.769Z,41.72
2022-12-04T02:13:06.948Z,38.58
2022-12-04T02:18:18.874Z,35.95
2022-12-04T02:23:41.080Z,37.08
2022-12-04T02:28:45.797Z,37.05
2022-12-04T02:33:54.230Z,40.65
2022-12-04T02:39:04.837Z,35.90
2022-12-04T02:44:20.336Z,38.28
2022-12-04T02:49:31.046Z,40.08
2022-12-04T02:54:38.774Z,38.50
2022-12-04T02:59:44.091Z,39.67
2022-12-04T03:04:47.361Z,38.83
2022-12-04T03:09:56.521Z,38.90
2022-12-04T03:15:12.620Z,38.45
2022-12-04T03:20:16.718Z,38.45
2022-12-04T03:25:18.627Z,40.38
2022-12-04T03:30:22.228Z,37.17
2022-12-04T03:35:30.069Z,38.67
2022-12-04T03:40:59.713Z,37.65
2022-12-04T03:46:08.207Z,36.63
2022-12-04T03:51:19.599Z,38.30
2022-12-04T03:56:32.487Z,40.50
2022-12-04T04:01:40.392Z,42.15
2022-12-04T04:06:56.170Z,40.78
2022-12-04T04:12:08.298Z,39.58
2022-12-04T04:17:38.387Z,41.05
2022-12-04T04:22:59.393Z,41.92
2022-12-04T04:28:01.160Z,41.60
2022-12-04T04:33:16.648Z,40.63
2022-12-04T04:38:31.938Z,40.30
2022-12-04T04:43:59.819Z,44.28
2022-12-04T04:49:04.074Z,39.00
2022-12-04T04:54:10.261Z,41.08
2022-12-04T04:59:12.790Z,42.65
2022-12-04T05:04:14.889Z,43.40
2022-12-04T05:09:16.611Z,40.80
2022-12-04T05:14:18.271Z,41.00
2022-12-04T05:19:38.276Z,42.50
2022-12-04T05:24:40.019Z,43.17
2022-12-04T05:29:41.715Z,39.25
2022-12-04T05:34:44.131Z,41.30
2022-12-04T05:39:46.122Z,41.88
2022-12-04T05:44:50.094Z,42.42
2022-12-04T05:49:52.357Z,41.65
2022-12-04T05:54:54.100Z,39.95
2022-12-04T05:59:56.145Z,40.20
2022-12-04T06:04:57.940Z,41.63
2022-12-04T06:09:59.636Z,44.47
2022-12-04T06:15:01.340Z,46.17
2022-12-04T06:20:06.685Z,45.53
2022-12-04T06:25:12.732Z,43.63
2022-12-04T06:30:14.463Z,45.15
2022-12-04T06:35:16.373Z,42.90
2022-12-04T06:40:18.173Z,42.42
2022-12-04T06:45:19.843Z,41.13
2022-12-04T06:50:21.518Z,45.15
2022-12-04T06:55:23.197Z,42.53
2022-12-04T07:00:24.855Z,42.03
2022-12-04T07:05:27.599Z,43.53
2022-12-04T07:10:29.272Z,43.50
2022-12-04T07:15:32.806Z,42.92
2022-12-04T07:20:34.544Z,44.03
2022-12-04T07:25:40.579Z,43.88
2022-12-04T07:30:42.283Z,46.70
2022-12-04T07:35:44.014Z,47.28
2022-12-04T07:40:45.665Z,44.50
2022-12-04T07:45:47.376Z,47.60
2022-12-04T07:50:49.295Z,45.28
2022-12-04T07:55:53.940Z,45.80
2022-12-04T08:00:55.707Z,46.50
2022-12-04T08:06:01.007Z,44.50
2022-12-04T08:11:11.452Z,47.63
2022-12-04T08:16:15.731Z,44.83
2022-12-04T08:21:20.966Z,43.75
2022-12-04T08:26:25.164Z,44.60
2022-12-04T08:31:29.506Z,46.30
2022-12-04T08:36:31.686Z,48.08
2022-12-04T08:41:33.482Z,50.30
2022-12-04T08:46:35.638Z,45.42
2022-12-04T08:51:37.595Z,46.08
2022-12-04T08:56:39.412Z,47.75
2022-12-04T09:01:41.199Z,44.75
2022-12-04T09:06:42.916Z,43.03
2022-12-04T09:11:47.649Z,43.30
2022-12-04T09:16:49.311Z,42.42
2022-12-04T09:21:50.968Z,45.13
2022-12-04T09:26:52.626Z,48.90
2022-12-04T09:31:54.362Z,46.83
2022-12-04T09:36:56.019Z,46.63
2022-12-04T09:42:15.981Z,46.03
2022-12-04T09:47:34.518Z,43.92
2022-12-04T09:52:56.221Z,44.33
2022-12-04T09:58:02.584Z,43.50
2022-12-04T10:03:07.730Z,43.72
2022-12-04T10:08:35.577Z,42.10
2022-12-04T10:14:03.058Z,44.72
2022-12-04T10:19:23.119Z,44.22
2022-12-04T10:24:39.813Z,45.00
2022-12-04T10:29:43.791Z,44.67
2022-12-04T10:34:48.536Z,44.90
2022-12-04T10:40:02.821Z,47.10
2022-12-04T10:45:06.432Z,43.65
2022-12-04T10:50:17.227Z,44.30
2022-12-04T10:55:38.289Z,42.83
2022-12-04T11:00:40.039Z,42.80
2022-12-04T11:05:52.980Z,39.45
2022-12-04T11:11:01.462Z,40.90
2022-12-04T11:16:03.707Z,42.13
2022-12-04T11:21:16.998Z,39.97
2022-12-04T11:26:33.821Z,42.22
2022-12-04T11:31:35.562Z,44.15
2022-12-04T11:36:40.656Z,43.88
2022-12-04T11:41:42.539Z,43.42
2022-12-04T11:46:52.744Z,39.33
2022-12-04T11:52:03.622Z,41.00
2022-12-04T11:57:45.741Z,41.35
2022-12-04T12:03:12.026Z,37.83
2022-12-04T12:08:38.575Z,41.00
2022-12-04T12:13:52.039Z,39.50
2022-12-04T12:19:25.744Z,38.90
2022-12-04T12:24:32.119Z,39.20
2022-12-04T12:30:07.204Z,39.08
2022-12-04T12:35:24.782Z,40.75
2022-12-04T12:40:34.663Z,40.50
2022-12-04T12:45:42.226Z,41.95
2022-12-04T12:51:29.559Z,40.75
2022-12-04T12:56:41.252Z,41.40
2022-12-04T13:01:54.769Z,41.17
2022-12-04T13:07:26.055Z,40.35
2022-12-04T13:12:28.642Z,41.03
2022-12-04T13:17:38.542Z,43.85
2022-12-04T13:22:59.806Z,41.65
2022-12-04T13:28:20.223Z,39.42
2022-12-04T13:33:29.298Z,40.65
2022-12-04T13:39:09.875Z,41.50
2022-12-04T13:44:21.222Z,42.97
2022-12-04T13:49:34.410Z,39.72
2022-12-04T13:54:36.924Z,40.88
2022-12-04T13:59:40.100Z,40.80
2022-12-04T14:04:52.157Z,35.60
2022-12-04T14:09:56.775Z,35.92
2022-12-04T14:15:03.225Z,36.50
2022-12-04T14:20:26.391Z,35.65
2022-12-04T14:25:39.848Z,31.48
2022-12-04T14:30:44.156Z,31.48
2022-12-04T14:35:54.720Z,31.17
2022-12-04T14:40:58.314Z,30.00
2022-12-04T14:46:13.893Z,31.08
2022-12-04T14:51:41.823Z,30.15
2022-12-04T14:57:01.716Z,30.35
2022-12-04T15:02:04.662Z,30.20
2022-12-04T15:07:06.496Z,29.73
2022-12-04T15:12:34.561Z,29.70
2022-12-04T15:17:36.301Z,30.35
2022-12-04T15:22:38.376Z,29.58
2022-12-04T15:27:40.324Z,27.65
2022-12-04T15:32:42.311Z,30.00
2022-12-04T15:37:44.059Z,31.08
2022-12-04T15:42:45.784Z,29.52
2022-12-04T15:47:47.403Z,30.20
2022-12-04T15:53:03.863Z,29.90
2022-12-04T15:58:18.127Z,29.17
2022-12-04T16:03:31.041Z,27.67
2022-12-04T16:08:37.655Z,28.13
2022-12-04T16:13:39.333Z,30.52
2022-12-04T16:18:41.442Z,29.02
2022-12-04T16:23:43.679Z,28.02
2022-12-04T16:28:46.070Z,28.65
2022-12-04T16:33:47.731Z,27.20
2022-12-04T16:38:50.417Z,28.95
2022-12-04T16:43:57.424Z,39.53
2022-12-04T16:49:04.282Z,39.20
2022-12-04T16:54:11.471Z,40.83
2022-12-04T16:59:13.214Z,37.22
2022-12-04T17:04:16.625Z,37.03
2022-12-04T17:09:18.768Z,34.00
2022-12-04T17:14:20.452Z,35.72
2022-12-04T17:19:22.115Z,38.60
2022-12-04T17:24:23.779Z,38.78
2022-12-04T17:29:25.458Z,36.10
2022-12-04T17:34:27.127Z,38.40
2022-12-04T17:39:29.122Z,38.85
2022-12-04T17:44:30.799Z,40.85
2022-12-04T17:49:32.564Z,40.92
2022-12-04T17:54:34.666Z,38.45
2022-12-04T17:59:36.353Z,41.40
2022-12-04T18:04:38.175Z,39.20
2022-12-04T18:09:40.052Z,35.63
2022-12-04T18:14:41.840Z,36.50
2022-12-04T18:19:43.573Z,28.27
2022-12-04T18:24:45.237Z,31.65
2022-12-04T18:29:46.917Z,24.33
2022-12-04T18:34:48.615Z,23.38
2022-12-04T18:39:51.099Z,26.30
2022-12-04T18:44:52.794Z,24.55
2022-12-04T18:49:54.738Z,21.42
2022-12-04T18:54:56.779Z,23.70
2022-12-04T18:59:58.817Z,22.02
2022-12-04T19:05:00.887Z,21.42
2022-12-04T19:10:10.724Z,19.05
2022-12-04T19:15:22.983Z,18.33
2022-12-04T19:20:24.650Z,17.90
2022-12-04T19:25:26.331Z,17.00
2022-12-04T19:30:28.166Z,18.25
2022-12-04T19:35:29.983Z,16.88
2022-12-04T19:40:31.660Z,16.33
2022-12-04T19:45:33.431Z,17.20
2022-12-04T19:50:35.168Z,17.02
2022-12-04T19:55:37.679Z,17.58
2022-12-04T20:00:39.459Z,17.02
2022-12-04T20:05:41.673Z,17.85
2022-12-04T20:10:43.540Z,18.20
2022-12-04T20:15:45.243Z,16.85
2022-12-04T20:20:57.747Z,15.18
2022-12-04T20:26:04.759Z,16.45
2022-12-04T20:31:28.337Z,17.17
2022-12-04T20:36:31.849Z,16.77
2022-12-04T20:41:33.865Z,16.50
2022-12-04T20:46:38.317Z,17.40
2022-12-04T20:51:41.860Z,15.93
2022-12-04T20:56:44.372Z,16.33
2022-12-04T21:01:46.989Z,17.33
2022-12-04T21:06:49.399Z,16.50
2022-12-04T21:11:53.657Z,17.83
2022-12-04T21:16:55.902Z,22.25
2022-12-04T21:21:57.617Z,22.17
2022-12-04T21:26:59.288Z,17.02
2022-12-04T21:32:01.227Z,17.58
2022-12-04T21:37:02.973Z,16.42
2022-12-04T21:42:23.364Z,16.67
2022-12-04T21:47:25.470Z,16.85
2022-12-04T21:52:27.167Z,17.35
2022-12-04T21:57:29.252Z,16.85
2022-12-04T22:02:31.821Z,15.90
2022-12-04T22:07:33.618Z,15.10
2022-12-04T22:12:50.977Z,14.43
2022-12-04T22:17:53.113Z,13.75
2022-12-04T22:22:54.777Z,14.50
2022-12-04T22:27:57.530Z,13.27
2022-12-04T22:32:59.299Z,13.10
2022-12-04T22:38:01.002Z,11.30
2022-12-04T22:43:02.678Z,11.63
2022-12-04T22:48:04.722Z,11.07
2022-12-04T22:53:06.412Z,10.35
2022-12-04T22:58:08.102Z,10.73
2022-12-04T23:03:09.961Z,11.70
2022-12-04T23:08:11.820Z,12.35
2022-12-04T23:13:13.746Z,13.05
2022-12-04T23:18:15.509Z,13.63
2022-12-04T23:23:17.217Z,15.38
2022-12-04T23:28:18.887Z,15.68
2022-12-04T23:33:20.592Z,16.02
2022-12-04T23:38:23.958Z,17.42
2022-12-04T23:43:25.680Z,17.33
2022-12-04T23:48:28.026Z,18.92
2022-12-04T23:53:29.760Z,20.00
2022-12-04T23:58:32.603Z,18.40
